Time;durP1;ratioP1;P1;durP2;ratioP2;P2;SDS_P1;SDS_P2;PMS_P1;PMS_P2;Temp;Humidity;BMP_temperature;BMP_pressure;BME280_temperature;BME280_humidity;BME280_pressure;Samples;Min_cycle;Max_cycle;Signal;HPM_P1;HPM_P2
2020/12/03 00:00:35;;;;;;;77.35;32.63;;;-0.40;99.90;;;;;;5055070;28;20055;-75
2020/12/03 00:03:06;;;;;;;86.72;34.58;;;-0.30;99.90;;;;;;5037182;28;20064;-74
2020/12/03 00:05:33;;;;;;;60.20;25.00;;;-0.30;99.90;;;;;;5055258;28;20021;-74
2020/12/03 00:07:59;;;;;;;77.43;33.17;;;-0.30;99.90;;;;;;5055884;28;20035;-75
2020/12/03 00:10:25;;;;;;;73.35;32.15;;;-0.30;99.90;;;;;;5054875;28;20025;-74
2020/12/03 00:13:03;;;;;;;78.30;32.15;;;-0.20;99.90;;;;;;5054498;28;20025;-74
2020/12/03 00:15:29;;;;;;;73.32;32.53;;;-0.20;99.90;;;;;;5054270;28;20488;-74
2020/12/03 00:17:55;;;;;;;76.90;33.50;;;-0.10;99.90;;;;;;5053794;28;20052;-74
2020/12/03 00:20:21;;;;;;;87.68;34.08;;;0.10;99.90;;;;;;5053862;28;20033;-75
2020/12/03 00:22:47;;;;;;;79.68;33.17;;;0.10;99.90;;;;;;5052242;28;20029;-74
2020/12/03 00:25:13;;;;;;;80.03;33.13;;;0.10;99.90;;;;;;5053787;28;20025;-74
2020/12/03 00:27:38;;;;;;;80.63;32.75;;;0.20;99.90;;;;;;5052253;28;20029;-74
2020/12/03 00:30:05;;;;;;;78.90;32.53;;;0.10;99.90;;;;;;5052358;28;20025;-74
2020/12/03 00:32:32;;;;;;;79.88;33.47;;;0.10;99.90;;;;;;5052086;28;20021;-74
2020/12/03 00:34:58;;;;;;;84.53;35.15;;;0.00;99.90;;;;;;5053357;28;20025;-74
2020/12/03 00:37:24;;;;;;;82.80;36.05;;;-0.10;99.90;;;;;;5052083;28;20385;-74
2020/12/03 00:39:50;;;;;;;80.72;35.08;;;-0.10;99.90;;;;;;5052133;28;20037;-74
2020/12/03 00:42:15;;;;;;;88.38;37.45;;;-0.40;99.90;;;;;;5052220;28;20029;-74
2020/12/03 00:44:41;;;;;;;96.53;34.70;;;-0.60;99.90;;;;;;5052959;28;20558;-74
2020/12/03 00:47:07;;;;;;;86.07;36.20;;;-0.60;99.90;;;;;;5035451;28;20112;-74
2020/12/03 00:49:32;;;;;;;92.40;35.13;;;-0.70;99.90;;;;;;5052801;28;20079;-74
2020/12/03 00:51:58;;;;;;;82.45;34.90;;;-0.70;99.90;;;;;;5051925;28;20021;-74
2020/12/03 00:54:24;;;;;;;86.32;35.65;;;-0.60;99.90;;;;;;5052864;28;20055;-74
2020/12/03 00:56:49;;;;;;;90.38;34.58;;;-0.50;99.90;;;;;;5053237;28;20504;-75
2020/12/03 00:59:15;;;;;;;86.00;35.72;;;-0.60;99.90;;;;;;5052863;28;20029;-74
2020/12/03 01:01:41;;;;;;;91.90;36.90;;;-0.60;99.90;;;;;;5053138;28;20029;-74
2020/12/03 01:04:07;;;;;;;86.30;35.95;;;-0.50;99.90;;;;;;5052494;28;20037;-74
2020/12/03 01:06:32;;;;;;;82.50;36.20;;;-0.60;99.90;;;;;;5051998;28;20040;-74
2020/12/03 01:08:58;;;;;;;76.03;33.15;;;-0.60;99.90;;;;;;5052765;28;20032;-74
2020/12/03 01:11:24;;;;;;;80.93;33.63;;;-0.50;99.90;;;;;;5052910;28;20025;-74
2020/12/03 01:13:50;;;;;;;79.78;34.83;;;-0.50;99.90;;;;;;5052639;28;20048;-74
2020/12/03 01:16:18;;;;;;;70.45;31.23;;;-0.40;99.90;;;;;;5052649;28;20022;-74
2020/12/03 01:18:48;;;;;;;83.38;35.30;;;-0.30;99.90;;;;;;5052499;28;20028;-74
2020/12/03 01:21:18;;;;;;;81.97;35.38;;;-0.20;99.90;;;;;;5052931;28;20028;-74
2020/12/03 01:23:44;;;;;;;70.95;32.00;;;-0.20;99.90;;;;;;5051148;28;20029;-74
2020/12/03 01:26:10;;;;;;;77.70;31.83;;;-0.20;99.90;;;;;;5052461;28;20048;-74
2020/12/03 01:28:35;;;;;;;77.38;33.13;;;0.00;99.90;;;;;;5051468;28;20040;-74
2020/12/03 01:31:03;;;;;;;80.38;33.33;;;0.10;99.90;;;;;;5050798;28;20033;-74
2020/12/03 01:33:30;;;;;;;79.85;34.08;;;0.10;99.90;;;;;;5052537;28;20014;-74
2020/12/03 01:35:56;;;;;;;73.53;34.13;;;0.10;99.90;;;;;;5052159;28;20100;-74
2020/12/03 01:38:21;;;;;;;74.10;33.08;;;-0.10;99.90;;;;;;5052399;28;20100;-74
2020/12/03 01:40:51;;;;;;;84.82;34.85;;;-0.20;99.90;;;;;;5051700;28;20029;-74
2020/12/03 01:43:17;;;;;;;79.35;34.47;;;-0.40;99.90;;;;;;5052484;28;20086;-75
2020/12/03 01:45:56;;;;;;;83.15;34.33;;;-0.20;99.90;;;;;;5052359;28;20472;-74
2020/12/03 01:48:40;;;;;;;68.28;30.48;;;-0.30;99.90;;;;;;5051895;28;20104;-74
2020/12/03 01:51:27;;;;;;;75.63;34.10;;;-0.20;99.90;;;;;;5051151;28;20412;-74
2020/12/03 01:54:03;;;;;;;80.20;34.95;;;-0.20;99.90;;;;;;5051595;28;20021;-74
2020/12/03 01:56:43;;;;;;;77.65;34.58;;;-0.30;99.90;;;;;;5051803;28;20384;-74
2020/12/03 01:59:11;;;;;;;71.55;32.78;;;-0.10;99.90;;;;;;5050896;28;20025;-75
2020/12/03 02:01:37;;;;;;;83.43;34.83;;;0.10;99.90;;;;;;5051844;28;20029;-75
2020/12/03 02:04:04;;;;;;;83.10;36.00;;;0.20;99.90;;;;;;5051779;28;20024;-74
2020/12/03 02:06:33;;;;;;;82.43;35.30;;;0.10;99.90;;;;;;5051495;28;20029;-74
2020/12/03 02:08:58;;;;;;;88.97;36.45;;;0.20;99.90;;;;;;5051669;28;20021;-74
2020/12/03 02:11:24;;;;;;;91.30;37.05;;;0.10;99.90;;;;;;5051669;28;20017;-74
2020/12/03 02:13:51;;;;;;;85.65;35.75;;;0.20;99.90;;;;;;5051639;28;20029;-74
2020/12/03 02:16:17;;;;;;;84.63;34.38;;;0.10;99.90;;;;;;5049923;28;20028;-74
2020/12/03 02:18:45;;;;;;;83.28;33.92;;;0.00;99.90;;;;;;5051580;28;20025;-74
2020/12/03 02:21:11;;;;;;;76.45;34.00;;;-0.20;99.90;;;;;;5051310;28;20066;-74
2020/12/03 02:23:36;;;;;;;86.95;34.25;;;-0.20;99.90;;;;;;5051432;28;20025;-74
2020/12/03 02:26:02;;;;;;;83.28;35.03;;;-0.10;99.90;;;;;;5049809;28;20102;-75
2020/12/03 02:28:28;;;;;;;91.13;36.67;;;0.10;99.90;;;;;;5051452;28;20049;-75
2020/12/03 02:30:53;;;;;;;88.82;35.20;;;0.20;99.90;;;;;;5051161;28;20036;-74
2020/12/03 02:33:19;;;;;;;92.22;38.38;;;0.20;99.90;;;;;;5051333;28;20025;-74
2020/12/03 02:35:45;;;;;;;91.00;36.10;;;0.30;99.90;;;;;;5049687;28;20090;-75
2020/12/03 02:38:10;;;;;;;95.43;37.50;;;0.40;99.90;;;;;;5050112;28;20092;-75
2020/12/03 02:40:36;;;;;;;86.88;36.00;;;0.30;99.90;;;;;;5051145;28;20087;-75
2020/12/03 02:43:02;;;;;;;91.63;39.28;;;0.30;99.90;;;;;;5049761;28;20592;-74
2020/12/03 02:45:27;;;;;;;96.93;38.00;;;-0.10;99.90;;;;;;5051018;28;20029;-74
2020/12/03 02:47:53;;;;;;;89.40;37.28;;;-0.20;99.90;;;;;;5050979;28;20025;-74
2020/12/03 02:50:19;;;;;;;97.13;36.45;;;-0.10;99.90;;;;;;5050881;28;20079;-74
2020/12/03 02:52:45;;;;;;;85.70;36.10;;;0.10;99.90;;;;;;5050143;28;20025;-74
2020/12/03 02:55:10;;;;;;;86.30;36.53;;;0.10;99.90;;;;;;5050982;28;20476;-74
2020/12/03 02:57:36;;;;;;;89.47;35.83;;;0.00;99.90;;;;;;5049546;28;20119;-75
2020/12/03 03:00:04;;;;;;;90.57;36.35;;;-0.10;99.90;;;;;;5051014;28;20029;-74
2020/12/03 03:02:30;;;;;;;86.32;37.00;;;-0.10;99.90;;;;;;5050691;28;20025;-75
2020/12/03 03:04:55;;;;;;;89.25;36.33;;;-0.10;99.90;;;;;;5049397;28;20025;-75
2020/12/03 03:07:21;;;;;;;81.43;33.50;;;0.10;99.90;;;;;;5050876;28;20112;-74
2020/12/03 03:09:47;;;;;;;88.80;36.45;;;0.00;99.90;;;;;;5049558;28;20028;-74
2020/12/03 03:12:12;;;;;;;98.15;37.88;;;-0.20;99.90;;;;;;5050896;28;20032;-75
2020/12/03 03:14:38;;;;;;;91.70;39.22;;;-0.30;99.90;;;;;;5050600;28;20578;-75
2020/12/03 03:17:05;;;;;;;91.45;36.13;;;-0.30;99.90;;;;;;5049484;28;20184;-74
2020/12/03 03:19:30;;;;;;;96.13;39.00;;;-0.40;99.90;;;;;;5050688;28;20075;-74
2020/12/03 03:21:56;;;;;;;89.70;37.33;;;-0.40;99.90;;;;;;5049597;28;20447;-74
2020/12/03 03:24:22;;;;;;;87.82;37.17;;;-0.30;99.90;;;;;;5049121;28;20116;-74
2020/12/03 03:26:47;;;;;;;90.03;39.72;;;-0.10;99.90;;;;;;5049503;28;20384;-74
2020/12/03 03:29:14;;;;;;;96.30;36.13;;;0.00;99.90;;;;;;5050413;28;20028;-74
2020/12/03 03:31:40;;;;;;;98.78;38.50;;;-0.20;99.90;;;;;;5049933;28;20021;-74
2020/12/03 03:34:06;;;;;;;98.90;36.78;;;-0.30;99.90;;;;;;5050754;28;20017;-74
2020/12/03 03:36:32;;;;;;;93.97;37.30;;;-0.40;99.90;;;;;;5051420;28;20017;-74
2020/12/03 03:38:58;;;;;;;94.93;37.78;;;-0.50;99.90;;;;;;5050627;28;20427;-75
2020/12/03 03:41:24;;;;;;;96.50;39.25;;;-0.50;99.90;;;;;;5049406;28;20433;-74
2020/12/03 03:43:51;;;;;;;92.15;37.38;;;-0.50;99.90;;;;;;5032513;28;20056;-74
2020/12/03 03:46:17;;;;;;;91.30;37.28;;;-0.40;99.90;;;;;;5050368;28;20029;-74
2020/12/03 03:48:43;;;;;;;95.28;37.10;;;-0.20;99.90;;;;;;5050255;28;20040;-75
2020/12/03 03:51:09;;;;;;;100.80;36.67;;;0.00;99.90;;;;;;5050391;28;20029;-74
2020/12/03 03:53:35;;;;;;;97.05;36.92;;;0.20;99.90;;;;;;5049105;28;20025;-74
2020/12/03 03:56:00;;;;;;;96.10;39.50;;;0.30;99.90;;;;;;5032534;28;20516;-74
2020/12/03 03:58:26;;;;;;;92.80;36.83;;;0.20;99.90;;;;;;5050257;28;20064;-74
2020/12/03 04:00:52;;;;;;;87.03;35.80;;;0.20;99.90;;;;;;5050452;28;20061;-74
2020/12/03 04:03:20;;;;;;;87.55;37.10;;;0.20;99.90;;;;;;5051579;28;20533;-76
2020/12/03 04:05:50;;;;;;;93.82;39.15;;;0.00;99.90;;;;;;5052643;28;20032;-75
2020/12/03 04:08:18;;;;;;;90.25;36.90;;;-0.10;99.90;;;;;;5054617;28;20033;-75
2020/12/03 04:10:44;;;;;;;100.20;35.45;;;-0.10;99.90;;;;;;5053739;28;20029;-75
2020/12/03 04:13:11;;;;;;;96.57;40.33;;;-0.20;99.90;;;;;;5053931;28;20021;-75
2020/12/03 04:15:37;;;;;;;101.30;37.88;;;-0.10;99.90;;;;;;5035907;28;20496;-75
2020/12/03 04:18:03;;;;;;;102.22;39.75;;;-0.20;99.90;;;;;;5053937;28;20401;-75
2020/12/03 04:20:29;;;;;;;89.13;38.45;;;-0.20;99.90;;;;;;5053662;28;20091;-75
2020/12/03 04:22:55;;;;;;;101.55;37.75;;;-0.10;99.90;;;;;;5053714;28;20056;-75
2020/12/03 04:25:21;;;;;;;90.32;37.28;;;-0.10;99.90;;;;;;5053352;28;20111;-75
2020/12/03 04:27:46;;;;;;;101.40;39.20;;;0.00;99.90;;;;;;5053672;28;20029;-75
2020/12/03 04:30:12;;;;;;;91.43;37.80;;;0.00;99.90;;;;;;5053206;28;20056;-75
2020/12/03 04:32:38;;;;;;;89.25;35.58;;;0.10;99.90;;;;;;5052416;28;20481;-75
2020/12/03 04:35:06;;;;;;;98.18;41.60;;;0.20;99.90;;;;;;5053199;28;20025;-75
2020/12/03 04:37:32;;;;;;;103.97;38.35;;;0.10;99.90;;;;;;5053472;28;20102;-75
2020/12/03 04:39:58;;;;;;;94.95;37.30;;;0.10;99.90;;;;;;5051888;28;20126;-75
2020/12/03 04:42:27;;;;;;;85.72;35.88;;;0.00;99.90;;;;;;5053496;28;20021;-75
2020/12/03 04:44:57;;;;;;;81.75;32.85;;;0.00;99.90;;;;;;5052951;28;20086;-75
2020/12/03 04:47:54;;;;;;;98.32;36.25;;;-0.10;99.90;;;;;;5053683;28;20366;-75
2020/12/03 04:50:32;;;;;;;85.35;34.95;;;-0.10;99.90;;;;;;5053028;28;20025;-75
2020/12/03 04:53:49;;;;;;;87.10;36.42;;;0.00;99.90;;;;;;5052214;28;20027;-75
2020/12/03 04:56:22;;;;;;;95.20;36.60;;;0.20;99.90;;;;;;5047318;28;20040;-76
2020/12/03 04:58:59;;;;;;;92.65;33.70;;;0.30;99.90;;;;;;5053221;28;20029;-75
2020/12/03 05:01:58;;;;;;;81.47;35.47;;;0.30;99.90;;;;;;5051704;28;20392;-75
2020/12/03 05:04:39;;;;;;;88.20;35.75;;;0.30;99.90;;;;;;5052901;28;20024;-75
2020/12/03 05:07:10;;;;;;;92.20;35.60;;;0.50;99.90;;;;;;5051622;28;20047;-75
2020/12/03 05:09:59;;;;;;;85.05;36.55;;;0.40;99.90;;;;;;5052935;28;20062;-75
2020/12/03 05:12:32;;;;;;;81.35;34.88;;;0.30;99.90;;;;;;5052713;28;20032;-76
2020/12/03 05:15:32;;;;;;;81.43;34.33;;;0.30;99.90;;;;;;5050740;28;20028;-75
2020/12/03 05:18:22;;;;;;;82.28;34.40;;;0.40;99.90;;;;;;5048542;28;20032;-75
2020/12/03 05:20:50;;;;;;;83.40;33.97;;;0.40;99.90;;;;;;5051391;28;20385;-75
2020/12/03 05:23:17;;;;;;;87.20;33.53;;;0.30;99.90;;;;;;5053082;28;20036;-75
2020/12/03 05:25:45;;;;;;;86.03;35.33;;;0.20;99.90;;;;;;5052775;28;20090;-75
2020/12/03 05:28:30;;;;;;;82.95;33.17;;;0.30;99.90;;;;;;5052614;28;20029;-76
2020/12/03 05:31:07;;;;;;;80.18;33.92;;;0.20;99.90;;;;;;5051183;28;20033;-75
2020/12/03 05:33:33;;;;;;;79.57;34.78;;;0.10;99.90;;;;;;5051513;28;20032;-75
2020/12/03 05:35:58;;;;;;;83.60;34.25;;;0.20;99.90;;;;;;5052239;28;20025;-76
2020/12/03 05:38:26;;;;;;;83.90;34.90;;;0.20;99.90;;;;;;5052364;28;20119;-75
2020/12/03 05:41:12;;;;;;;80.00;33.08;;;0.20;99.90;;;;;;5051787;28;20441;-75
2020/12/03 05:43:38;;;;;;;80.68;32.92;;;0.30;99.90;;;;;;5051118;28;20025;-75
2020/12/03 05:46:03;;;;;;;76.47;32.78;;;0.30;99.90;;;;;;5052160;28;20298;-75
2020/12/03 05:48:29;;;;;;;78.28;33.17;;;0.30;99.90;;;;;;5050591;28;20029;-75
2020/12/03 05:50:55;;;;;;;80.15;32.90;;;0.20;99.90;;;;;;5052282;28;20028;-75
2020/12/03 05:53:26;;;;;;;76.45;33.97;;;0.20;99.90;;;;;;5050522;28;20024;-75
2020/12/03 05:56:09;;;;;;;68.07;26.35;;;0.10;99.90;;;;;;5051902;28;20021;-75
2020/12/03 05:58:35;;;;;;;79.70;33.53;;;0.20;99.90;;;;;;5050519;28;20029;-75
2020/12/03 06:01:23;;;;;;;82.68;34.35;;;0.40;99.90;;;;;;5051992;28;20029;-75
2020/12/03 06:04:19;;;;;;;73.22;31.85;;;0.20;99.90;;;;;;5051587;28;20025;-76
2020/12/03 06:07:10;;;;;;;77.47;33.53;;;0.30;99.90;;;;;;5052105;28;20021;-75
2020/12/03 06:10:01;;;;;;;78.38;33.80;;;0.20;99.90;;;;;;5051101;28;20056;-75
2020/12/03 06:12:58;;;;;;;53.42;24.98;;;0.30;99.90;;;;;;5048193;28;20025;-75
2020/12/03 06:16:04;;;;;;;79.43;31.90;;;0.50;99.90;;;;;;5034951;28;20034;-75
2020/12/03 06:18:55;;;;;;;70.28;30.67;;;0.60;99.90;;;;;;4997262;28;20418;-75
2020/12/03 06:21:47;;;;;;;72.47;30.10;;;0.60;99.90;;;;;;5002884;28;20049;-76
2020/12/03 06:24:43;;;;;;;71.28;31.30;;;0.60;99.90;;;;;;5043078;28;20052;-76
2020/12/03 06:27:34;;;;;;;71.57;28.92;;;0.50;99.90;;;;;;5049843;28;20074;-76
2020/12/03 06:30:00;;;;;;;67.90;30.08;;;0.60;99.90;;;;;;5027746;28;20353;-75
2020/12/03 06:32:47;;;;;;;72.13;31.42;;;0.60;99.90;;;;;;5039542;28;20021;-75
2020/12/03 06:35:13;;;;;;;71.18;32.22;;;0.60;99.90;;;;;;5049467;28;20100;-76
2020/12/03 06:37:50;;;;;;;67.50;28.90;;;0.60;99.90;;;;;;5050143;28;20440;-75
2020/12/03 06:40:25;;;;;;;58.47;28.83;;;0.50;99.90;;;;;;5047781;28;20120;-75
2020/12/03 06:43:15;;;;;;;67.18;30.73;;;0.60;99.90;;;;;;5043731;28;20067;-76
2020/12/03 06:45:51;;;;;;;63.47;28.75;;;0.70;99.90;;;;;;5049064;28;20079;-76
2020/12/03 06:48:35;;;;;;;60.58;28.52;;;0.70;99.90;;;;;;5050737;28;20223;-76
2020/12/03 06:51:38;;;;;;;58.67;28.77;;;0.60;99.90;;;;;;5049063;28;20047;-75
2020/12/03 06:54:25;;;;;;;64.10;27.23;;;0.60;99.90;;;;;;5044505;28;20477;-76
2020/12/03 06:57:24;;;;;;;65.68;27.38;;;0.60;99.90;;;;;;5048218;28;20024;-75
2020/12/03 06:59:55;;;;;;;65.72;29.55;;;0.70;99.90;;;;;;5049459;28;20029;-75
2020/12/03 07:02:43;;;;;;;58.28;26.55;;;0.70;99.90;;;;;;5049578;28;20116;-75
2020/12/03 07:05:40;;;;;;;56.70;26.90;;;0.60;99.90;;;;;;5045093;28;20035;-75
2020/12/03 07:08:39;;;;;;;55.55;26.20;;;0.40;99.90;;;;;;5045100;28;20025;-75
2020/12/03 07:11:23;;;;;;;56.30;25.83;;;0.20;99.90;;;;;;5045950;28;20025;-75
2020/12/03 07:14:34;;;;;;;54.30;27.00;;;0.30;99.90;;;;;;5048663;28;20025;-76
2020/12/03 07:17:20;;;;;;;50.63;25.75;;;0.40;99.90;;;;;;5051982;28;20026;-75
2020/12/03 07:20:21;;;;;;;56.63;27.10;;;0.40;99.90;;;;;;5031589;28;20076;-75
2020/12/03 07:22:57;;;;;;;61.30;28.10;;;0.30;99.90;;;;;;5032694;28;20142;-75
2020/12/03 07:25:23;;;;;;;60.35;26.20;;;0.50;99.90;;;;;;5049381;28;20025;-75
2020/12/03 07:28:18;;;;;;;52.25;26.23;;;0.50;99.90;;;;;;5038555;28;20048;-76
2020/12/03 07:30:49;;;;;;;59.17;26.75;;;0.60;99.90;;;;;;5048303;28;20276;-76
2020/12/03 07:33:38;;;;;;;51.80;25.98;;;0.70;99.90;;;;;;5048608;28;20017;-75
2020/12/03 07:36:13;;;;;;;59.55;27.35;;;0.80;99.90;;;;;;5051583;28;20029;-76
2020/12/03 07:38:41;;;;;;;55.72;24.98;;;1.00;99.90;;;;;;5051394;28;20021;-76
2020/12/03 07:41:14;;;;;;;49.50;24.00;;;1.00;99.90;;;;;;5053519;28;20055;-76
2020/12/03 07:43:39;;;;;;;42.30;22.75;;;1.10;99.90;;;;;;5053092;28;20025;-76
2020/12/03 07:46:24;;;;;;;53.10;24.80;;;1.10;99.90;;;;;;5052983;28;20435;-76
2020/12/03 07:48:50;;;;;;;52.45;24.98;;;1.10;99.90;;;;;;5053271;28;20560;-76
2020/12/03 07:51:18;;;;;;;47.53;24.58;;;1.00;99.90;;;;;;5035455;28;20123;-76
2020/12/03 07:53:44;;;;;;;52.90;26.25;;;1.20;99.90;;;;;;5053005;28;20028;-76
2020/12/03 07:56:36;;;;;;;52.95;26.67;;;1.00;99.90;;;;;;5044142;28;20020;-76
2020/12/03 07:59:23;;;;;;;60.20;25.48;;;0.90;99.90;;;;;;5053227;28;20017;-78
2020/12/03 08:01:54;;;;;;;47.55;25.55;;;0.80;99.90;;;;;;5048349;28;20022;-76
2020/12/03 08:04:22;;;;;;;46.85;24.17;;;0.80;99.90;;;;;;5043188;28;20037;-76
2020/12/03 08:07:21;;;;;;;48.33;23.58;;;1.00;99.90;;;;;;5045324;28;20052;-76
2020/12/03 08:09:47;;;;;;;46.45;23.15;;;1.20;99.90;;;;;;5051031;28;20025;-76
2020/12/03 08:12:16;;;;;;;47.20;24.27;;;1.30;99.90;;;;;;5037525;28;20079;-76
2020/12/03 08:14:54;;;;;;;53.05;26.15;;;1.30;99.90;;;;;;5044846;28;20025;-76
2020/12/03 08:17:22;;;;;;;49.17;26.02;;;1.20;99.90;;;;;;5034741;28;20493;-76
2020/12/03 08:20:13;;;;;;;44.15;22.35;;;1.40;99.90;;;;;;5020713;28;20103;-76
2020/12/03 08:22:48;;;;;;;46.05;21.75;;;1.30;99.90;;;;;;5052137;28;20021;-76
2020/12/03 08:25:28;;;;;;;49.20;24.00;;;1.10;99.90;;;;;;5027404;28;20079;-78
2020/12/03 08:28:03;;;;;;;49.58;25.20;;;1.10;99.90;;;;;;5053423;28;20021;-77
2020/12/03 08:30:38;;;;;;;50.08;24.30;;;1.30;99.90;;;;;;5047809;28;20033;-77
2020/12/03 08:33:33;;;;;;;45.35;23.30;;;1.40;99.90;;;;;;5039101;28;20044;-76
2020/12/03 08:36:05;;;;;;;40.72;19.20;;;1.60;99.90;;;;;;5039773;28;20029;-76
2020/12/03 08:38:37;;;;;;;59.38;22.30;;;1.80;99.90;;;;;;5036755;28;20031;-75
2020/12/03 08:41:08;;;;;;;37.03;21.75;;;1.90;99.90;;;;;;5037858;28;20481;-76
2020/12/03 08:43:41;;;;;;;41.50;22.27;;;2.00;99.90;;;;;;5041189;28;20319;-78
2020/12/03 08:46:12;;;;;;;43.33;22.15;;;1.90;99.90;;;;;;5036113;28;20038;-75
2020/12/03 08:48:39;;;;;;;80.43;21.27;;;1.90;99.90;;;;;;5042762;28;20029;-75
2020/12/03 08:51:09;;;;;;;38.60;21.38;;;2.20;99.90;;;;;;5051054;28;20051;-75
2020/12/03 08:53:37;;;;;;;41.30;20.63;;;2.30;99.20;;;;;;5041819;28;20029;-75
2020/12/03 08:56:16;;;;;;;42.75;21.75;;;2.70;99.90;;;;;;5041263;28;20444;-74
2020/12/03 08:59:02;;;;;;;36.20;20.80;;;2.80;99.50;;;;;;5040902;28;20025;-75
2020/12/03 09:01:34;;;;;;;37.83;20.33;;;2.50;95.20;;;;;;5049723;28;20481;-75
2020/12/03 09:04:03;;;;;;;44.88;23.63;;;2.20;95.80;;;;;;5051765;28;20424;-75
2020/12/03 09:06:35;;;;;;;45.63;24.23;;;2.00;96.90;;;;;;5051224;28;20069;-76
2020/12/03 09:09:02;;;;;;;39.28;21.80;;;1.90;97.60;;;;;;5041170;28;20024;-76
2020/12/03 09:11:32;;;;;;;42.05;23.33;;;1.80;98.00;;;;;;5045224;28;20176;-76
2020/12/03 09:13:58;;;;;;;39.75;20.35;;;1.80;99.20;;;;;;5051533;28;20421;-75
2020/12/03 09:16:26;;;;;;;50.67;25.27;;;1.70;99.80;;;;;;5051506;28;20108;-76
2020/12/03 09:18:52;;;;;;;51.25;26.10;;;1.80;99.80;;;;;;5052029;28;20022;-75
2020/12/03 09:21:31;;;;;;;40.47;22.85;;;1.80;98.60;;;;;;5051638;28;20029;-72
2020/12/03 09:23:58;;;;;;;42.88;22.55;;;1.80;98.90;;;;;;5033140;28;20428;-72
2020/12/03 09:26:31;;;;;;;40.35;21.80;;;1.90;99.00;;;;;;5032328;28;20507;-72
2020/12/03 09:28:58;;;;;;;35.95;21.08;;;1.90;99.40;;;;;;5047054;28;20111;-76
2020/12/03 09:31:25;;;;;;;33.97;20.02;;;1.90;98.90;;;;;;5036001;28;20476;-76
2020/12/03 09:33:53;;;;;;;41.25;21.70;;;1.90;98.40;;;;;;5043593;28;20017;-76
2020/12/03 09:36:20;;;;;;;36.13;21.58;;;1.90;98.20;;;;;;5051563;28;20021;-76
2020/12/03 09:38:48;;;;;;;39.05;19.77;;;1.80;97.10;;;;;;5048204;28;20075;-75
2020/12/03 09:41:16;;;;;;;34.45;19.50;;;1.80;98.20;;;;;;5039923;28;20024;-75
2020/12/03 09:43:45;;;;;;;31.80;17.73;;;1.80;98.70;;;;;;5048777;28;20534;-75
2020/12/03 09:46:14;;;;;;;38.50;20.77;;;1.90;98.30;;;;;;5049947;28;20032;-75
2020/12/03 09:48:41;;;;;;;36.55;20.90;;;1.60;96.50;;;;;;5051651;28;20024;-75
2020/12/03 09:51:08;;;;;;;56.35;31.02;;;1.80;98.20;;;;;;5050844;28;20420;-74
2020/12/03 09:53:34;;;;;;;35.55;19.75;;;2.00;97.60;;;;;;5050261;28;20021;-76
2020/12/03 09:56:02;;;;;;;33.53;20.40;;;2.10;97.50;;;;;;5038892;28;20017;-76
2020/12/03 09:58:37;;;;;;;33.85;19.10;;;2.10;96.90;;;;;;5061632;23;20041;-89
2020/12/03 10:01:21;;;;;;;33.58;19.10;;;2.30;97.10;;;;;;5032336;28;20045;-89
2020/12/03 10:04:41;;;;;;;32.38;19.25;;;2.40;96.10;;;;;;5031733;28;20041;-91
2020/12/03 10:07:44;;;;;;;36.95;19.85;;;2.30;95.60;;;;;;5033764;28;20020;-88
2020/12/03 10:10:46;;;;;;;38.40;20.15;;;2.20;95.70;;;;;;5014501;28;20116;-88
2020/12/03 10:13:42;;;;;;;37.97;20.70;;;2.20;95.70;;;;;;5026419;28;20022;-88
2020/12/03 10:16:38;;;;;;;34.42;20.50;;;2.20;95.80;;;;;;5024843;28;20124;-88
2020/12/03 10:19:22;;;;;;;31.77;19.95;;;2.40;95.90;;;;;;5019330;28;20466;-88
2020/12/03 10:22:16;;;;;;;36.00;20.75;;;2.40;94.60;;;;;;5004819;28;20037;-89
2020/12/03 10:25:27;;;;;;;33.65;18.15;;;2.30;95.40;;;;;;5014905;28;20018;-88
2020/12/03 10:28:54;;;;;;;31.17;18.17;;;2.30;95.60;;;;;;5010601;28;20025;-88
2020/12/03 10:31:56;;;;;;;33.38;18.77;;;2.30;95.80;;;;;;4957692;28;20035;-88
2020/12/03 10:35:15;;;;;;;34.78;19.65;;;2.30;95.40;;;;;;4958673;28;20088;-88
2020/12/03 10:38:42;;;;;;;33.42;19.13;;;2.50;95.20;;;;;;4996514;28;20029;-89
2020/12/03 10:41:41;;;;;;;32.40;19.23;;;2.60;95.30;;;;;;5000969;28;20132;-88
2020/12/03 10:44:39;;;;;;;34.53;19.13;;;2.50;94.60;;;;;;5011656;28;20042;-90
2020/12/03 10:47:31;;;;;;;34.35;19.60;;;2.50;94.40;;;;;;5029982;28;20068;-89
2020/12/03 10:50:06;;;;;;;34.45;20.20;;;2.40;93.20;;;;;;5025570;28;20466;-88
2020/12/03 10:59:44;;;;;;;32.30;18.75;;;2.40;93.80;;;;;;5039636;28;20509;-89
2020/12/03 11:02:25;;;;;;;33.65;18.25;;;2.40;93.70;;;;;;5016017;28;20111;-90
2020/12/03 11:04:56;;;;;;;;;;;2.40;93.60;;;;;;5014351;28;20029;-90
2020/12/03 11:11:17;;;;;;;31.08;18.38;;;2.60;93.20;;;;;;5029715;28;20578;-89
2020/12/03 11:13:46;;;;;;;31.08;18.75;;;2.50;92.60;;;;;;5014344;28;20048;-90
2020/12/03 11:16:18;;;;;;;;;;;2.60;92.70;;;;;;5027015;28;20037;-89
2020/12/03 11:19:32;;;;;;;33.20;18.73;;;2.60;92.90;;;;;;5037312;28;19905;-89
2020/12/03 11:23:02;;;;;;;30.20;17.38;;;2.70;92.50;;;;;;5015461;28;20083;-89
2020/12/03 11:25:53;;;;;;;33.50;18.67;;;2.80;92.20;;;;;;5016351;28;20026;-89
2020/12/03 11:28:54;;;;;;;41.83;20.10;;;2.70;91.60;;;;;;5024813;28;20071;-89
2020/12/03 11:31:44;;;;;;;58.22;21.85;;;2.70;92.10;;;;;;5016352;28;20076;-90
2020/12/03 11:34:24;;;;;;;41.85;21.02;;;2.80;92.40;;;;;;4999555;28;20483;-90
2020/12/03 11:37:10;;;;;;;;;;;;;;;;;;;;;
2020/12/03 11:39:53;;;;;;;40.85;15.45;;;4.00;90.90;;;;;;5029777;28;20531;-89
2020/12/03 11:42:40;;;;;;;47.22;15.75;;;5.20;84.60;;;;;;5013398;28;20057;-89
2020/12/03 11:51:02;;;;;;;40.30;16.88;;;7.20;69.80;;;;;;5021673;28;20022;-89
2020/12/03 11:54:00;;;;;;;28.02;15.57;;;7.60;68.00;;;;;;5018590;28;20075;-90
2020/12/03 11:57:23;;;;;;;32.40;16.90;;;8.00;66.60;;;;;;5023660;28;20105;-89
2020/12/03 12:00:18;;;;;;;41.75;16.35;;;7.70;66.40;;;;;;5010176;28;20033;-89
2020/12/03 12:02:45;;;;;;;61.00;16.70;;;7.20;66.60;;;;;;4987070;28;20831;-90
2020/12/03 12:05:51;;;;;;;44.38;17.10;;;6.60;67.70;;;;;;5004772;28;20041;-89
2020/12/03 12:08:36;;;;;;;35.13;15.98;;;5.70;70.50;;;;;;5012955;28;20466;-89
2020/12/03 12:11:19;;;;;;;38.70;21.60;;;5.00;74.30;;;;;;5018800;28;20678;-90
2020/12/03 12:14:28;;;;;;;72.57;20.23;;;4.90;77.20;;;;;;5024213;28;20026;-90
2020/12/03 12:16:57;;;;;;;41.40;20.02;;;4.50;76.50;;;;;;5004832;28;20034;-90
2020/12/03 12:19:37;;;;;;;40.17;18.77;;;4.20;78.90;;;;;;4997294;28;20050;-90
2020/12/03 12:22:05;;;;;;;31.35;18.67;;;4.00;80.10;;;;;;5011695;28;20021;-90
2020/12/03 12:25:03;;;;;;;39.92;18.65;;;3.70;81.20;;;;;;5008943;28;20025;-90
2020/12/03 12:27:49;;;;;;;33.67;18.50;;;3.70;82.10;;;;;;5000735;28;20033;-90
2020/12/03 12:30:39;;;;;;;32.30;18.55;;;3.60;84.00;;;;;;5017550;28;20037;-90
2020/12/03 12:33:27;;;;;;;128.73;22.80;;;3.60;85.70;;;;;;5042558;28;20121;-90
2020/12/03 12:36:11;;;;;;;167.82;26.38;;;3.60;86.60;;;;;;5029364;28;20394;-90
2020/12/03 12:38:49;;;;;;;71.78;23.83;;;3.60;86.30;;;;;;5016883;28;20033;-90
2020/12/03 12:44:26;;;;;;;39.30;15.73;;;3.40;83.90;;;;;;5009119;28;20042;-89
2020/12/03 12:47:04;;;;;;;73.13;17.85;;;3.30;83.30;;;;;;5006980;28;20038;-90
2020/12/03 12:53:49;;;;;;;42.05;14.82;;;4.10;86.10;;;;;;5018181;28;20026;-90
2020/12/03 12:56:38;;;;;;;24.70;13.20;;;5.90;78.80;;;;;;5025930;28;20697;-89
2020/12/03 12:59:14;;;;;;;90.55;16.52;;;7.10;71.00;;;;;;5007447;28;20037;-89
2020/12/03 13:01:50;;;;;;;72.38;16.75;;;7.90;66.30;;;;;;5021858;28;20032;-88
2020/12/03 13:04:39;;;;;;;;;;;;;;;;;;;;;
2020/12/03 13:07:11;;;;;;;44.10;17.10;;;8.40;66.50;;;;;;5023191;28;20076;-90
2020/12/03 13:10:10;;;;;;;33.40;15.90;;;9.20;63.70;;;;;;5039155;28;20083;-89
2020/12/03 13:12:38;;;;;;;63.53;18.30;;;9.70;61.50;;;;;;5029563;28;20026;-88
2020/12/03 13:15:13;;;;;;;23.95;15.20;;;9.60;58.60;;;;;;5029048;28;20083;-89
2020/12/03 13:17:55;;;;;;;35.58;14.90;;;9.70;59.30;;;;;;5028783;28;20030;-89
2020/12/03 13:20:26;;;;;;;36.03;15.52;;;9.70;57.90;;;;;;5001588;28;20026;-90
2020/12/03 13:22:58;;;;;;;87.95;19.55;;;9.60;57.30;;;;;;5019944;28;20037;-89
2020/12/03 13:33:30;;;;;;;30.35;16.45;;;6.60;69.30;;;;;;5005288;28;20041;-89
2020/12/03 13:36:06;;;;;;;50.28;18.95;;;6.40;69.50;;;;;;5008304;28;20026;-89
2020/12/03 13:38:46;;;;;;;29.92;16.83;;;6.20;71.10;;;;;;5014633;28;20029;-89
2020/12/03 13:41:31;;;;;;;63.70;20.88;;;6.20;72.10;;;;;;5015183;28;20049;-89
2020/12/03 13:44:07;;;;;;;45.28;18.10;;;6.10;71.80;;;;;;5014763;28;20017;-90
2020/12/03 13:46:43;;;;;;;38.80;19.88;;;5.50;72.80;;;;;;5002510;28;20022;-89
2020/12/03 13:49:14;;;;;;;35.75;19.20;;;5.10;75.80;;;;;;5015503;28;20021;-89
2020/12/03 13:52:00;;;;;;;36.67;20.92;;;5.20;77.50;;;;;;5027464;28;20096;-89
2020/12/03 13:54:46;;;;;;;44.50;19.77;;;5.40;76.50;;;;;;5017711;28;20038;-89